createdAt,value
2022-09-03T00:00:19.006Z,14.39
2022-09-03T00:03:34.038Z,14.35
2022-09-03T00:06:17.570Z,14.39
2022-09-03T00:08:52.124Z,14.29
2022-09-03T00:11:24.262Z,14.29
2022-09-03T00:14:06.272Z,14.33
2022-09-03T00:17:14.358Z,14.35
2022-09-03T00:19:47.057Z,14.32
2022-09-03T00:22:21.961Z,14.34
2022-09-03T00:24:50.248Z,14.32
2022-09-03T00:27:25.900Z,14.33
2022-09-03T00:30:00.088Z,14.27
2022-09-03T00:32:41.288Z,14.46
2022-09-03T00:35:16.962Z,14.28
2022-09-03T00:37:44.474Z,14.32
2022-09-03T00:40:28.454Z,14.29
2022-09-03T00:43:15.720Z,14.29
2022-09-03T00:46:18.677Z,14.19
2022-09-03T00:49:14.744Z,14.30
2022-09-03T00:52:03.095Z,14.44
2022-09-03T00:54:46.174Z,14.40
2022-09-03T00:57:15.989Z,14.31
2022-09-03T01:00:05.326Z,14.31
2022-09-03T01:02:42.266Z,14.33
2022-09-03T01:05:22.948Z,14.48
2022-09-03T01:08:03.764Z,14.36
2022-09-03T01:10:44.730Z,14.44
2022-09-03T01:13:43.832Z,14.38
2022-09-03T01:16:22.888Z,14.33
2022-09-03T01:18:57.397Z,14.39
2022-09-03T01:21:42.803Z,14.43
2022-09-03T01:24:30.030Z,14.33
2022-09-03T01:27:34.130Z,14.31
2022-09-03T01:30:15.484Z,14.34
2022-09-03T01:33:00.723Z,14.28
2022-09-03T01:35:46.142Z,14.19
2022-09-03T01:38:27.889Z,14.16
2022-09-03T01:41:20.521Z,14.07
2022-09-03T01:44:09.527Z,14.14
2022-09-03T01:46:41.244Z,14.03
2022-09-03T01:49:23.910Z,14.07
2022-09-03T01:52:11.400Z,14.00
2022-09-03T01:54:56.084Z,14.04
2022-09-03T01:57:37.067Z,14.09
2022-09-03T02:00:20.638Z,13.99
2022-09-03T02:02:51.253Z,13.98
2022-09-03T02:05:25.741Z,14.03
2022-09-03T02:08:09.457Z,13.98
2022-09-03T02:10:52.434Z,14.01
2022-09-03T02:13:41.717Z,14.06
2022-09-03T02:16:21.891Z,13.98
2022-09-03T02:18:56.377Z,14.02
2022-09-03T02:21:25.463Z,14.04
2022-09-03T02:23:52.542Z,14.03
2022-09-03T02:26:23.929Z,14.08
2022-09-03T02:28:51.555Z,14.08
2022-09-03T02:31:18.476Z,14.06
2022-09-03T02:33:47.700Z,14.16
2022-09-03T02:36:18.018Z,14.25
2022-09-03T02:38:46.353Z,14.18
2022-09-03T02:41:15.452Z,14.26
2022-09-03T02:44:03.214Z,14.22
2022-09-03T02:46:38.494Z,14.19
2022-09-03T02:49:05.781Z,14.08
2022-09-03T02:51:41.866Z,14.09
2022-09-03T02:54:11.060Z,14.13
2022-09-03T02:56:38.250Z,14.04
2022-09-03T02:59:06.548Z,14.14
2022-09-03T03:01:33.441Z,14.17
2022-09-03T03:04:00.266Z,14.13
2022-09-03T03:06:27.243Z,14.36
2022-09-03T03:08:57.091Z,14.24
2022-09-03T03:11:26.363Z,14.33
2022-09-03T03:13:53.217Z,14.30
2022-09-03T03:16:20.135Z,14.19
2022-09-03T03:18:46.970Z,14.24
2022-09-03T03:21:15.935Z,14.18
2022-09-03T03:23:42.879Z,14.23
2022-09-03T03:26:13.719Z,14.16
2022-09-03T03:28:42.479Z,14.20
2022-09-03T03:31:15.875Z,14.19
2022-09-03T03:33:43.182Z,14.21
2022-09-03T03:36:11.867Z,14.11
2022-09-03T03:38:39.312Z,14.05
2022-09-03T03:41:13.870Z,14.07
2022-09-03T03:43:40.734Z,14.05
2022-09-03T03:46:07.751Z,14.06
2022-09-03T03:48:34.582Z,14.08
2022-09-03T03:51:06.840Z,14.16
2022-09-03T03:53:35.741Z,14.16
2022-09-03T03:56:05.618Z,14.22
2022-09-03T03:58:33.471Z,14.19
2022-09-03T04:01:08.878Z,14.22
2022-09-03T04:03:36.285Z,14.22
2022-09-03T04:06:04.797Z,14.23
2022-09-03T04:08:35.534Z,14.22
2022-09-03T04:11:03.987Z,14.23
2022-09-03T04:13:36.795Z,14.27
2022-09-03T04:16:18.631Z,14.25
2022-09-03T04:18:46.262Z,14.30
2022-09-03T04:21:15.945Z,14.25
2022-09-03T04:23:45.602Z,14.26
2022-09-03T04:26:15.717Z,14.23
2022-09-03T04:28:42.619Z,14.20
2022-09-03T04:31:11.697Z,14.27
2022-09-03T04:33:39.496Z,14.21
2022-09-03T04:36:15.349Z,14.35
2022-09-03T04:38:43.671Z,14.27
2022-09-03T04:41:12.834Z,14.26
2022-09-03T04:43:42.499Z,14.41
2022-09-03T04:46:14.495Z,14.39
2022-09-03T04:48:44.058Z,14.31
2022-09-03T04:51:16.270Z,14.36
2022-09-03T04:53:46.008Z,14.37
2022-09-03T04:56:14.268Z,14.34
2022-09-03T04:58:44.155Z,14.36
2022-09-03T05:01:12.661Z,14.34
2022-09-03T05:03:39.357Z,14.47
2022-09-03T05:06:06.420Z,14.39
2022-09-03T05:08:37.303Z,14.38
2022-09-03T05:11:05.499Z,14.48
2022-09-03T05:13:33.760Z,14.37
2022-09-03T05:16:05.876Z,14.49
2022-09-03T05:18:33.761Z,14.42
2022-09-03T05:21:02.042Z,14.39
2022-09-03T05:23:34.288Z,14.57
2022-09-03T05:26:10.820Z,14.49
2022-09-03T05:28:40.556Z,14.55
2022-09-03T05:31:18.632Z,14.54
2022-09-03T05:33:47.454Z,14.52
2022-09-03T05:36:19.536Z,14.53
2022-09-03T05:38:47.718Z,14.52
2022-09-03T05:41:16.081Z,14.49
2022-09-03T05:43:43.719Z,14.49
2022-09-03T05:46:13.497Z,14.49
2022-09-03T05:48:41.284Z,14.55
2022-09-03T05:51:18.833Z,14.57
2022-09-03T05:53:48.446Z,14.58
2022-09-03T05:56:21.106Z,14.61
2022-09-03T05:58:52.963Z,14.64
2022-09-03T06:01:20.787Z,14.58
2022-09-03T06:03:53.583Z,14.62
2022-09-03T06:06:25.630Z,14.63
2022-09-03T06:08:53.695Z,14.59
2022-09-03T06:11:20.771Z,14.59
2022-09-03T06:13:47.605Z,14.66
2022-09-03T06:16:14.702Z,14.59
2022-09-03T06:18:41.622Z,14.63
2022-09-03T06:21:08.569Z,14.61
2022-09-03T06:23:36.268Z,14.82
2022-09-03T06:26:11.182Z,14.75
2022-09-03T06:28:41.247Z,14.72
2022-09-03T06:31:10.364Z,14.82
2022-09-03T06:33:38.860Z,14.82
2022-09-03T06:36:09.006Z,14.86
2022-09-03T06:38:37.855Z,14.88
2022-09-03T06:41:07.508Z,14.95
2022-09-03T06:43:36.384Z,14.94
2022-09-03T06:46:07.444Z,14.98
2022-09-03T06:48:35.595Z,15.03
2022-09-03T06:51:07.859Z,15.20
2022-09-03T06:53:37.218Z,15.49
2022-09-03T06:56:07.711Z,15.64
2022-09-03T06:58:44.080Z,15.77
2022-09-03T07:01:13.677Z,15.69
2022-09-03T07:03:42.078Z,15.87
2022-09-03T07:06:14.394Z,15.79
2022-09-03T07:08:42.568Z,15.65
2022-09-03T07:11:14.532Z,15.56
2022-09-03T07:13:44.186Z,15.64
2022-09-03T07:16:22.206Z,15.56
2022-09-03T07:18:50.011Z,15.58
2022-09-03T07:21:20.079Z,15.72
2022-09-03T07:23:47.984Z,15.69
2022-09-03T07:26:17.471Z,15.73
2022-09-03T07:28:46.097Z,15.91
2022-09-03T07:31:15.866Z,15.73
2022-09-03T07:33:43.009Z,15.68
2022-09-03T07:36:14.345Z,15.43
2022-09-03T07:38:44.510Z,15.49
2022-09-03T07:41:13.103Z,15.54
2022-09-03T07:43:51.085Z,15.29
2022-09-03T07:46:23.683Z,15.46
2022-09-03T07:48:58.779Z,15.39
2022-09-03T07:51:28.552Z,15.47
2022-09-03T07:53:58.172Z,15.62
2022-09-03T07:56:26.984Z,15.45
2022-09-03T07:58:57.023Z,15.44
2022-09-03T08:01:26.101Z,15.50
2022-09-03T08:03:53.739Z,15.42
2022-09-03T08:06:25.568Z,15.48
2022-09-03T08:09:04.629Z,15.44
2022-09-03T08:11:36.780Z,15.57
2022-09-03T08:14:06.612Z,15.61
2022-09-03T08:16:45.991Z,15.58
2022-09-03T08:19:13.477Z,15.51
2022-09-03T08:21:43.705Z,15.65
2022-09-03T08:24:15.984Z,15.73
2022-09-03T08:26:47.695Z,15.64
2022-09-03T08:29:18.137Z,15.56
2022-09-03T08:31:44.948Z,15.49
2022-09-03T08:34:14.569Z,15.45
2022-09-03T08:36:41.964Z,15.51
2022-09-03T08:39:10.892Z,15.49
2022-09-03T08:41:53.567Z,15.61
2022-09-03T08:44:39.009Z,15.57
2022-09-03T08:47:13.927Z,15.58
2022-09-03T08:49:49.362Z,15.68
2022-09-03T08:52:23.825Z,15.83
2022-09-03T08:54:54.685Z,16.35
2022-09-03T08:57:22.311Z,16.76
2022-09-03T08:59:54.669Z,16.70
2022-09-03T09:02:21.487Z,16.54
2022-09-03T09:04:54.387Z,16.67
2022-09-03T09:07:42.210Z,16.69
2022-09-03T09:10:20.883Z,16.56
2022-09-03T09:13:06.917Z,17.07
2022-09-03T09:16:02.389Z,17.30
2022-09-03T09:18:57.203Z,17.23
2022-09-03T09:21:34.012Z,17.08
2022-09-03T09:24:12.888Z,17.07
2022-09-03T09:26:41.835Z,17.23
2022-09-03T09:29:10.822Z,17.38
2022-09-03T09:31:41.297Z,17.69
2022-09-03T09:34:09.118Z,17.34
2022-09-03T09:36:47.378Z,17.26
2022-09-03T09:39:19.323Z,17.42
2022-09-03T09:42:11.339Z,17.43
2022-09-03T09:44:40.573Z,17.30
2022-09-03T09:47:22.707Z,17.14
2022-09-03T09:49:49.680Z,17.87
2022-09-03T09:52:16.948Z,17.84
2022-09-03T09:54:48.674Z,18.27
2022-09-03T09:57:18.356Z,18.70
2022-09-03T09:59:46.274Z,18.85
2022-09-03T10:02:59.683Z,18.84
2022-09-03T10:05:40.600Z,18.81
2022-09-03T10:08:19.532Z,18.25
2022-09-03T10:10:49.858Z,18.15
2022-09-03T10:13:21.471Z,18.11
2022-09-03T10:16:12.641Z,18.39
2022-09-03T10:19:00.991Z,18.62
2022-09-03T10:21:35.361Z,18.68
2022-09-03T10:24:23.675Z,18.71
2022-09-03T10:26:50.517Z,18.57
2022-09-03T10:29:22.124Z,18.73
2022-09-03T10:31:57.891Z,18.67
2022-09-03T10:34:53.246Z,18.70
2022-09-03T10:37:44.338Z,18.50
2022-09-03T10:40:11.016Z,18.34
2022-09-03T10:42:48.253Z,18.17
2022-09-03T10:45:37.778Z,18.21
2022-09-03T10:48:20.787Z,18.68
2022-09-03T10:50:53.169Z,18.62
2022-09-03T10:53:34.703Z,18.52
2022-09-03T10:56:12.948Z,18.68
2022-09-03T10:59:17.333Z,18.82
2022-09-03T11:01:46.728Z,18.72
2022-09-03T11:04:29.057Z,18.34
2022-09-03T11:07:09.474Z,18.27
2022-09-03T11:09:52.346Z,18.33
2022-09-03T11:12:32.327Z,18.27
2022-09-03T11:15:11.973Z,17.81
2022-09-03T11:17:46.981Z,18.10
2022-09-03T11:20:22.397Z,17.78
2022-09-03T11:22:53.637Z,17.64
2022-09-03T11:25:25.908Z,17.79
2022-09-03T11:28:18.277Z,17.71
2022-09-03T11:31:25.654Z,17.78
2022-09-03T11:34:09.315Z,17.73
2022-09-03T11:36:38.812Z,17.40
2022-09-03T11:39:39.533Z,17.32
2022-09-03T11:42:12.455Z,17.55
2022-09-03T11:44:51.389Z,17.70
2022-09-03T11:47:38.537Z,17.70
2022-09-03T11:50:26.967Z,17.45
2022-09-03T11:53:06.650Z,17.61
2022-09-03T11:55:53.622Z,17.99
2022-09-03T11:58:28.003Z,18.04
2022-09-03T12:00:55.769Z,18.28
2022-09-03T12:03:30.612Z,18.16
2022-09-03T12:06:23.756Z,18.01
2022-09-03T12:09:02.746Z,18.03
2022-09-03T12:11:37.404Z,18.09
2022-09-03T12:14:13.863Z,18.13
2022-09-03T12:16:52.845Z,17.94
2022-09-03T12:19:41.881Z,17.70
2022-09-03T12:22:17.617Z,17.87
2022-09-03T12:24:45.342Z,17.65
2022-09-03T12:27:18.451Z,17.58
2022-09-03T12:30:16.889Z,17.55
2022-09-03T12:32:43.914Z,17.50
2022-09-03T12:38:09.585Z,17.45
2022-09-03T12:43:38.306Z,17.47
2022-09-03T12:46:10.613Z,17.65
2022-09-03T12:48:40.459Z,17.79
2022-09-03T12:53:54.675Z,17.41
2022-09-03T12:56:25.862Z,17.39
2022-09-03T12:59:01.683Z,17.42
2022-09-03T13:01:38.185Z,17.46
2022-09-03T13:04:14.554Z,17.70
2022-09-03T13:06:47.205Z,17.98
2022-09-03T13:09:15.151Z,17.72
2022-09-03T13:11:45.213Z,17.92
2022-09-03T13:14:13.897Z,17.96
2022-09-03T13:16:46.720Z,17.74
2022-09-03T13:19:22.288Z,17.42
2022-09-03T13:21:59.739Z,17.63
2022-09-03T13:24:39.022Z,17.54
2022-09-03T13:27:20.622Z,17.37
2022-09-03T13:29:50.169Z,17.72
2022-09-03T13:32:40.651Z,17.73
2022-09-03T13:35:19.371Z,17.60
2022-09-03T13:38:15.504Z,17.81
2022-09-03T13:40:54.776Z,17.81
2022-09-03T13:43:35.358Z,17.72
2022-09-03T13:46:24.819Z,17.62
2022-09-03T13:49:18.130Z,17.37
2022-09-03T13:52:01.120Z,17.17
2022-09-03T13:54:50.495Z,17.37
2022-09-03T13:57:50.952Z,17.53
2022-09-03T14:01:04.407Z,17.38
2022-09-03T14:03:53.877Z,17.31
2022-09-03T14:06:45.196Z,17.39
2022-09-03T14:09:41.323Z,17.23
2022-09-03T14:12:13.921Z,17.11
2022-09-03T14:14:40.664Z,17.03
2022-09-03T14:17:16.976Z,17.22
2022-09-03T14:19:48.440Z,17.33
2022-09-03T14:22:28.890Z,17.42
2022-09-03T14:25:12.409Z,17.08
2022-09-03T14:27:39.305Z,16.92
2022-09-03T14:30:18.923Z,16.88
2022-09-03T14:33:03.431Z,16.83
2022-09-03T14:36:08.665Z,17.13
2022-09-03T14:38:47.859Z,17.00
2022-09-03T14:41:15.991Z,16.92
2022-09-03T14:44:04.588Z,17.14
2022-09-03T14:46:52.785Z,17.14
2022-09-03T14:49:25.345Z,16.92
2022-09-03T14:52:01.371Z,17.03
2022-09-03T14:54:42.202Z,16.94
2022-09-03T14:58:05.015Z,17.09
2022-09-03T15:00:48.158Z,17.06
2022-09-03T15:03:36.411Z,16.97
2022-09-03T15:06:43.817Z,17.06
2022-09-03T15:09:35.461Z,17.03
2022-09-03T15:12:39.866Z,17.01
2022-09-03T15:15:21.908Z,16.95
2022-09-03T15:18:00.906Z,16.92
2022-09-03T15:20:52.224Z,17.04
2022-09-03T15:23:31.253Z,16.99
2022-09-03T15:26:16.578Z,17.21
2022-09-03T15:28:58.609Z,17.13
2022-09-03T15:31:34.574Z,17.12
2022-09-03T15:34:22.847Z,17.21
2022-09-03T15:36:53.852Z,17.13
2022-09-03T15:39:28.205Z,17.08
2022-09-03T15:42:27.389Z,16.85
2022-09-03T15:44:57.060Z,16.77
2022-09-03T15:48:01.552Z,16.68
2022-09-03T15:50:40.592Z,16.76
2022-09-03T15:53:30.797Z,16.86
2022-09-03T15:56:13.890Z,16.88
2022-09-03T15:58:45.760Z,16.73
2022-09-03T16:01:34.857Z,16.69
2022-09-03T16:04:17.801Z,16.79
2022-09-03T16:07:09.923Z,16.64
2022-09-03T16:10:23.833Z,16.50
2022-09-03T16:13:04.731Z,16.36
2022-09-03T16:16:00.419Z,16.37
2022-09-03T16:18:55.342Z,16.40
2022-09-03T16:21:45.036Z,16.32
2022-09-03T16:24:47.609Z,16.42
2022-09-03T16:27:22.940Z,16.33
2022-09-03T16:30:02.325Z,16.35
2022-09-03T16:32:38.945Z,16.42
2022-09-03T16:35:20.483Z,16.47
2022-09-03T16:38:14.396Z,16.46
2022-09-03T16:40:44.832Z,16.44
2022-09-03T16:43:49.215Z,16.39
2022-09-03T16:46:34.486Z,16.43
2022-09-03T16:49:27.938Z,16.43
2022-09-03T16:52:53.127Z,16.19
2022-09-03T16:55:53.154Z,16.14
2022-09-03T16:58:34.265Z,16.21
2022-09-03T17:01:39.745Z,16.18
2022-09-03T17:04:25.023Z,16.27
2022-09-03T17:07:15.798Z,16.07
2022-09-03T17:10:01.313Z,16.16
2022-09-03T17:12:37.003Z,16.10
2022-09-03T17:15:31.595Z,16.08
2022-09-03T17:18:16.689Z,16.02
2022-09-03T17:20:58.618Z,16.05
2022-09-03T17:23:50.580Z,15.99
2022-09-03T17:26:34.654Z,16.13
2022-09-03T17:29:41.691Z,16.06
2022-09-03T17:32:21.203Z,16.16
2022-09-03T17:34:57.313Z,16.04
2022-09-03T17:37:40.340Z,16.06
2022-09-03T17:40:19.531Z,16.04
2022-09-03T17:43:01.355Z,15.80
2022-09-03T17:45:49.680Z,15.86
2022-09-03T17:48:35.045Z,15.84
2022-09-03T17:51:09.338Z,15.65
2022-09-03T17:53:44.962Z,15.64
2022-09-03T17:56:24.118Z,15.60
2022-09-03T17:59:05.078Z,15.52
2022-09-03T18:01:37.968Z,15.50
2022-09-03T18:04:34.587Z,15.48
2022-09-03T18:07:21.255Z,15.51
2022-09-03T18:10:10.163Z,15.54
2022-09-03T18:13:04.752Z,15.49
2022-09-03T18:15:48.300Z,15.45
2022-09-03T18:18:29.202Z,15.45
2022-09-03T18:21:25.445Z,15.47
2022-09-03T18:24:36.876Z,15.57
2022-09-03T18:27:39.744Z,15.46
2022-09-03T18:30:34.958Z,15.39
2022-09-03T18:33:20.307Z,15.27
2022-09-03T18:36:06.002Z,15.34
2022-09-03T18:38:55.643Z,15.28
2022-09-03T18:41:53.175Z,15.29
2022-09-03T18:45:11.954Z,15.33
2022-09-03T18:48:29.941Z,15.32
2022-09-03T18:51:53.106Z,15.28
2022-09-03T18:55:20.617Z,15.26
2022-09-03T18:58:49.829Z,15.22
2022-09-03T19:01:49.413Z,15.22
2022-09-03T19:04:59.594Z,15.21
2022-09-03T19:08:13.749Z,15.18
2022-09-03T19:11:32.504Z,15.20
2022-09-03T19:14:25.881Z,15.20
2022-09-03T19:17:28.586Z,15.17
2022-09-03T19:20:36.640Z,15.18
2022-09-03T19:23:22.645Z,15.14
2022-09-03T19:26:10.582Z,15.08
2022-09-03T19:29:04.031Z,15.03
2022-09-03T19:32:06.535Z,15.04
2022-09-03T19:35:18.560Z,15.04
2022-09-03T19:38:22.759Z,15.08
2022-09-03T19:41:25.810Z,14.99
2022-09-03T19:44:26.506Z,14.97
2022-09-03T19:47:18.419Z,15.00
2022-09-03T19:50:15.864Z,14.95
2022-09-03T19:53:16.604Z,14.99
2022-09-03T19:56:13.223Z,14.93
2022-09-03T19:59:05.548Z,14.92
2022-09-03T20:01:54.945Z,14.96
2022-09-03T20:04:56.750Z,14.93
2022-09-03T20:07:42.679Z,14.95
2022-09-03T20:10:24.901Z,14.89
2022-09-03T20:13:16.159Z,14.84
2022-09-03T20:16:22.026Z,14.90
2022-09-03T20:18:54.662Z,14.94
2022-09-03T20:21:48.926Z,14.86
2022-09-03T20:24:31.441Z,14.84
2022-09-03T20:27:09.532Z,14.86
2022-09-03T20:29:49.627Z,15.05
2022-09-03T20:32:29.185Z,14.89
2022-09-03T20:35:10.581Z,14.91
2022-09-03T20:38:16.449Z,14.92
2022-09-03T20:40:58.323Z,15.04
2022-09-03T20:43:49.299Z,14.93
2022-09-03T20:46:28.194Z,14.88
2022-09-03T20:49:03.839Z,15.04
2022-09-03T20:51:41.891Z,14.93
2022-09-03T20:54:09.560Z,14.88
2022-09-03T20:56:36.264Z,14.87
2022-09-03T20:59:29.290Z,15.08
2022-09-03T21:02:29.014Z,14.89
2022-09-03T21:05:06.354Z,14.90
2022-09-03T21:08:40.911Z,14.90
2022-09-03T21:11:42.644Z,14.88
2022-09-03T21:14:14.521Z,14.97
2022-09-03T21:16:56.185Z,14.97
2022-09-03T21:19:53.166Z,14.89
2022-09-03T21:22:25.809Z,14.98
2022-09-03T21:25:15.373Z,14.95
2022-09-03T21:27:49.813Z,14.96
2022-09-03T21:30:20.316Z,15.01
2022-09-03T21:33:04.829Z,14.95
2022-09-03T21:35:39.221Z,15.01
2022-09-03T21:38:14.246Z,14.86
2022-09-03T21:40:51.006Z,14.85
2022-09-03T21:43:30.663Z,14.93
2022-09-03T21:46:06.579Z,14.86
2022-09-03T21:48:56.286Z,14.85
2022-09-03T21:51:55.282Z,15.03
2022-09-03T21:54:33.752Z,14.90
2022-09-03T21:57:46.920Z,14.94
2022-09-03T22:00:19.716Z,14.94
2022-09-03T22:02:47.543Z,14.98
2022-09-03T22:05:16.303Z,14.94
2022-09-03T22:08:02.217Z,14.96
2022-09-03T22:10:58.960Z,14.98
2022-09-03T22:13:25.898Z,14.92
2022-09-03T22:15:57.710Z,14.98
2022-09-03T22:18:28.787Z,14.95
2022-09-03T22:21:13.191Z,14.79
2022-09-03T22:23:45.730Z,14.92
2022-09-03T22:26:45.232Z,14.83
2022-09-03T22:29:47.827Z,14.79
2022-09-03T22:32:50.271Z,14.80
2022-09-03T22:35:53.506Z,14.97
2022-09-03T22:38:46.200Z,14.80
2022-09-03T22:42:03.323Z,14.84
2022-09-03T22:44:55.432Z,14.90
2022-09-03T22:48:00.829Z,14.95
2022-09-03T22:50:47.731Z,14.89
2022-09-03T22:53:52.949Z,14.90
2022-09-03T22:56:24.178Z,14.88
2022-09-03T22:58:56.858Z,14.85
2022-09-03T23:01:30.522Z,14.83
2022-09-03T23:04:07.071Z,14.93
2022-09-03T23:06:39.446Z,14.88
2022-09-03T23:09:12.077Z,15.04
2022-09-03T23:11:44.986Z,15.03
2022-09-03T23:14:51.430Z,14.85
2022-09-03T23:22:38.786Z,14.97
2022-09-03T23:25:15.451Z,14.93
2022-09-03T23:27:50.688Z,15.01
2022-09-03T23:30:17.464Z,14.95
2022-09-03T23:32:44.291Z,14.98
2022-09-03T23:35:55.438Z,14.96
2022-09-03T23:38:45.331Z,14.94
2022-09-03T23:41:22.879Z,15.09
2022-09-03T23:44:01.081Z,15.05
2022-09-03T23:46:38.494Z,15.02
2022-09-03T23:49:12.939Z,15.02
2022-09-03T23:51:50.945Z,15.05
2022-09-03T23:54:29.701Z,15.05
2022-09-03T23:57:11.564Z,15.01
2022-09-03T23:59:56.741Z,15.02
